sensor_id;sensor_type;location;lat;lon;timestamp;temperature;humidity
25024;DHT22;13033;50.936;5.334;2024-03-23T00:53:01;8.50;99.90
25024;DHT22;13033;50.936;5.334;2024-03-23T00:55:27;8.50;99.90
25024;DHT22;13033;50.936;5.334;2024-03-23T00:57:52;8.40;99.90
25024;DHT22;13033;50.936;5.334;2024-03-23T01:00:18;8.80;99.90
25024;DHT22;13033;50.936;5.334;2024-03-23T01:02:44;8.90;99.90
25024;DHT22;13033;50.936;5.334;2024-03-23T01:05:09;8.90;99.90
25024;DHT22;13033;50.936;5.334;2024-03-23T01:07:35;8.90;99.90
25024;DHT22;13033;50.936;5.334;2024-03-23T01:10:01;8.70;99.90
25024;DHT22;13033;50.936;5.334;2024-03-23T01:12:26;8.60;99.90
25024;DHT22;13033;50.936;5.334;2024-03-23T01:14:52;8.50;99.90
25024;DHT22;13033;50.936;5.334;2024-03-23T01:17:18;8.20;99.90
25024;DHT22;13033;50.936;5.334;2024-03-23T01:19:43;8.20;99.90
25024;DHT22;13033;50.936;5.334;2024-03-23T01:22:09;8.10;99.90
25024;DHT22;13033;50.936;5.334;2024-03-23T01:24:38;8.00;99.90
25024;DHT22;13033;50.936;5.334;2024-03-23T01:27:03;8.20;99.90
25024;DHT22;13033;50.936;5.334;2024-03-23T01:29:29;8.40;99.90
25024;DHT22;13033;50.936;5.334;2024-03-23T01:31:55;8.60;99.90
25024;DHT22;13033;50.936;5.334;2024-03-23T01:34:21;8.60;99.90
25024;DHT22;13033;50.936;5.334;2024-03-23T01:36:46;8.50;99.90
25024;DHT22;13033;50.936;5.334;2024-03-23T01:39:13;8.30;99.90
25024;DHT22;13033;50.936;5.334;2024-03-23T01:41:40;8.40;99.90
25024;DHT22;13033;50.936;5.334;2024-03-23T01:44:07;8.30;99.90
25024;DHT22;13033;50.936;5.334;2024-03-23T01:46:34;8.20;99.90
25024;DHT22;13033;50.936;5.334;2024-03-23T01:49:00;8.30;99.90
25024;DHT22;13033;50.936;5.334;2024-03-23T01:51:27;8.20;99.90
25024;DHT22;13033;50.936;5.334;2024-03-23T01:53:54;8.20;99.90
25024;DHT22;13033;50.936;5.334;2024-03-23T01:56:20;8.10;99.90
25024;DHT22;13033;50.936;5.334;2024-03-23T01:58:46;8.10;99.90
25024;DHT22;13033;50.936;5.334;2024-03-23T02:01:11;8.10;99.90
25024;DHT22;13033;50.936;5.334;2024-03-23T02:03:37;8.10;99.90
25024;DHT22;13033;50.936;5.334;2024-03-23T02:06:03;8.30;99.90
25024;DHT22;13033;50.936;5.334;2024-03-23T02:08:30;8.50;99.90
25024;DHT22;13033;50.936;5.334;2024-03-23T02:10:56;8.40;99.90
25024;DHT22;13033;50.936;5.334;2024-03-23T02:13:24;8.40;99.90
25024;DHT22;13033;50.936;5.334;2024-03-23T02:15:49;8.40;99.90
25024;DHT22;13033;50.936;5.334;2024-03-23T02:18:15;8.30;99.90
25024;DHT22;13033;50.936;5.334;2024-03-23T02:20:41;8.40;99.90
25024;DHT22;13033;50.936;5.334;2024-03-23T02:23:16;8.50;99.90
25024;DHT22;13033;50.936;5.334;2024-03-23T02:25:42;8.40;99.90
25024;DHT22;13033;50.936;5.334;2024-03-23T02:28:08;8.30;99.90
25024;DHT22;13033;50.936;5.334;2024-03-23T02:30:33;8.10;99.90
25024;DHT22;13033;50.936;5.334;2024-03-23T02:32:59;8.00;99.90
25024;DHT22;13033;50.936;5.334;2024-03-23T02:35:25;7.90;99.90
25024;DHT22;13033;50.936;5.334;2024-03-23T02:37:50;7.90;99.90
25024;DHT22;13033;50.936;5.334;2024-03-23T02:40:17;7.80;99.90
25024;DHT22;13033;50.936;5.334;2024-03-23T02:42:42;7.80;99.90
25024;DHT22;13033;50.936;5.334;2024-03-23T02:45:08;7.90;99.90
25024;DHT22;13033;50.936;5.334;2024-03-23T02:47:34;7.80;99.90
25024;DHT22;13033;50.936;5.334;2024-03-23T02:50:00;7.90;99.90
25024;DHT22;13033;50.936;5.334;2024-03-23T02:52:26;7.90;99.90
25024;DHT22;13033;50.936;5.334;2024-03-23T02:54:51;8.00;99.90
25024;DHT22;13033;50.936;5.334;2024-03-23T02:57:17;7.90;99.90
25024;DHT22;13033;50.936;5.334;2024-03-23T02:59:43;7.80;99.90
25024;DHT22;13033;50.936;5.334;2024-03-23T03:02:08;7.90;99.90
25024;DHT22;13033;50.936;5.334;2024-03-23T03:04:34;7.90;99.90
25024;DHT22;13033;50.936;5.334;2024-03-23T03:07:00;7.90;99.90
25024;DHT22;13033;50.936;5.334;2024-03-23T03:09:26;7.90;99.90
25024;DHT22;13033;50.936;5.334;2024-03-23T03:11:51;8.10;99.90
25024;DHT22;13033;50.936;5.334;2024-03-23T03:14:17;8.10;99.90
25024;DHT22;13033;50.936;5.334;2024-03-23T03:16:43;8.20;99.90
25024;DHT22;13033;50.936;5.334;2024-03-23T03:19:09;8.10;99.90
25024;DHT22;13033;50.936;5.334;2024-03-23T03:21:36;8.10;99.90
25024;DHT22;13033;50.936;5.334;2024-03-23T03:24:02;8.00;99.90
25024;DHT22;13033;50.936;5.334;2024-03-23T03:26:28;8.00;99.90
25024;DHT22;13033;50.936;5.334;2024-03-23T03:28:54;8.00;99.90
25024;DHT22;13033;50.936;5.334;2024-03-23T03:31:20;7.90;99.90
25024;DHT22;13033;50.936;5.334;2024-03-23T03:33:46;7.80;99.90
25024;DHT22;13033;50.936;5.334;2024-03-23T03:36:12;7.80;99.90
25024;DHT22;13033;50.936;5.334;2024-03-23T03:38:37;7.70;99.90
25024;DHT22;13033;50.936;5.334;2024-03-23T03:41:06;7.70;99.90
25024;DHT22;13033;50.936;5.334;2024-03-23T03:43:31;7.80;99.90
25024;DHT22;13033;50.936;5.334;2024-03-23T03:45:58;8.00;99.90
25024;DHT22;13033;50.936;5.334;2024-03-23T03:48:24;7.90;99.90
25024;DHT22;13033;50.936;5.334;2024-03-23T03:50:50;8.00;99.90
25024;DHT22;13033;50.936;5.334;2024-03-23T03:53:16;8.00;99.90
25024;DHT22;13033;50.936;5.334;2024-03-23T03:55:42;8.00;99.90
25024;DHT22;13033;50.936;5.334;2024-03-23T03:58:07;8.00;99.90
25024;DHT22;13033;50.936;5.334;2024-03-23T04:00:33;8.00;99.90
25024;DHT22;13033;50.936;5.334;2024-03-23T04:02:59;7.90;99.90
25024;DHT22;13033;50.936;5.334;2024-03-23T04:05:24;7.80;99.90
25024;DHT22;13033;50.936;5.334;2024-03-23T04:07:50;7.70;99.90
25024;DHT22;13033;50.936;5.334;2024-03-23T04:10:16;7.70;99.90
25024;DHT22;13033;50.936;5.334;2024-03-23T04:12:42;7.80;99.90
25024;DHT22;13033;50.936;5.334;2024-03-23T04:15:08;7.90;99.90
25024;DHT22;13033;50.936;5.334;2024-03-23T04:17:34;8.00;99.90
25024;DHT22;13033;50.936;5.334;2024-03-23T04:20:00;8.00;99.90
25024;DHT22;13033;50.936;5.334;2024-03-23T04:22:27;8.20;99.90
25024;DHT22;13033;50.936;5.334;2024-03-23T04:24:56;8.00;99.90
25024;DHT22;13033;50.936;5.334;2024-03-23T04:27:23;7.70;99.90
25024;DHT22;13033;50.936;5.334;2024-03-23T04:29:52;7.90;99.90
25024;DHT22;13033;50.936;5.334;2024-03-23T04:32:18;7.90;99.90
25024;DHT22;13033;50.936;5.334;2024-03-23T04:34:44;8.00;99.90
25024;DHT22;13033;50.936;5.334;2024-03-23T04:37:11;7.90;99.90
25024;DHT22;13033;50.936;5.334;2024-03-23T04:39:37;7.70;99.90
25024;DHT22;13033;50.936;5.334;2024-03-23T04:42:03;7.80;99.90
25024;DHT22;13033;50.936;5.334;2024-03-23T04:44:29;7.60;99.90
25024;DHT22;13033;50.936;5.334;2024-03-23T04:46:59;7.60;99.90
25024;DHT22;13033;50.936;5.334;2024-03-23T04:49:25;7.60;99.90
25024;DHT22;13033;50.936;5.334;2024-03-23T04:51:51;7.70;99.90
25024;DHT22;13033;50.936;5.334;2024-03-23T04:54:16;7.70;99.90
25024;DHT22;13033;50.936;5.334;2024-03-23T04:56:42;7.80;99.90
25024;DHT22;13033;50.936;5.334;2024-03-23T04:59:07;7.80;99.90
25024;DHT22;13033;50.936;5.334;2024-03-23T05:01:34;7.60;99.90
25024;DHT22;13033;50.936;5.334;2024-03-23T05:04:00;7.60;99.90
25024;DHT22;13033;50.936;5.334;2024-03-23T05:06:26;7.60;99.90
25024;DHT22;13033;50.936;5.334;2024-03-23T05:08:52;7.80;99.90
25024;DHT22;13033;50.936;5.334;2024-03-23T05:11:18;7.80;99.90
25024;DHT22;13033;50.936;5.334;2024-03-23T05:13:44;7.70;99.90
25024;DHT22;13033;50.936;5.334;2024-03-23T05:16:10;7.60;99.90
25024;DHT22;13033;50.936;5.334;2024-03-23T05:18:35;7.60;99.90
25024;DHT22;13033;50.936;5.334;2024-03-23T05:21:01;7.50;99.90
25024;DHT22;13033;50.936;5.334;2024-03-23T05:23:28;7.40;99.90
25024;DHT22;13033;50.936;5.334;2024-03-23T05:25:54;7.60;99.90
25024;DHT22;13033;50.936;5.334;2024-03-23T05:28:23;7.60;99.90
25024;DHT22;13033;50.936;5.334;2024-03-23T05:30:55;7.60;99.90
25024;DHT22;13033;50.936;5.334;2024-03-23T05:33:22;7.60;99.90
25024;DHT22;13033;50.936;5.334;2024-03-23T05:36:00;7.70;99.90
25024;DHT22;13033;50.936;5.334;2024-03-23T05:38:26;7.70;99.90
25024;DHT22;13033;50.936;5.334;2024-03-23T05:40:57;7.70;99.90
25024;DHT22;13033;50.936;5.334;2024-03-23T05:43:23;7.60;99.90
25024;DHT22;13033;50.936;5.334;2024-03-23T05:45:55;7.60;99.90
25024;DHT22;13033;50.936;5.334;2024-03-23T05:48:21;7.50;99.90
25024;DHT22;13033;50.936;5.334;2024-03-23T05:50:48;7.50;99.90
25024;DHT22;13033;50.936;5.334;2024-03-23T05:53:15;7.50;99.90
25024;DHT22;13033;50.936;5.334;2024-03-23T05:55:41;7.60;99.90
25024;DHT22;13033;50.936;5.334;2024-03-23T05:58:06;7.60;99.90
25024;DHT22;13033;50.936;5.334;2024-03-23T06:00:32;7.60;99.90
25024;DHT22;13033;50.936;5.334;2024-03-23T06:02:58;7.60;99.90
25024;DHT22;13033;50.936;5.334;2024-03-23T06:05:23;7.60;99.90
25024;DHT22;13033;50.936;5.334;2024-03-23T06:07:49;7.60;99.90
25024;DHT22;13033;50.936;5.334;2024-03-23T06:10:15;7.60;99.90
25024;DHT22;13033;50.936;5.334;2024-03-23T06:12:41;7.50;99.90
25024;DHT22;13033;50.936;5.334;2024-03-23T06:15:07;7.60;99.90
25024;DHT22;13033;50.936;5.334;2024-03-23T06:17:36;7.70;99.90
25024;DHT22;13033;50.936;5.334;2024-03-23T06:20:02;7.80;99.90
25024;DHT22;13033;50.936;5.334;2024-03-23T06:22:28;7.80;99.90
25024;DHT22;13033;50.936;5.334;2024-03-23T06:24:54;7.80;99.90
25024;DHT22;13033;50.936;5.334;2024-03-23T06:27:19;7.90;99.90
25024;DHT22;13033;50.936;5.334;2024-03-23T06:29:45;7.80;99.90
25024;DHT22;13033;50.936;5.334;2024-03-23T06:32:11;7.90;99.90
25024;DHT22;13033;50.936;5.334;2024-03-23T06:34:36;7.90;99.90
25024;DHT22;13033;50.936;5.334;2024-03-23T06:37:02;7.80;99.90
25024;DHT22;13033;50.936;5.334;2024-03-23T06:39:28;7.70;99.90
25024;DHT22;13033;50.936;5.334;2024-03-23T06:41:55;7.70;99.90
25024;DHT22;13033;50.936;5.334;2024-03-23T06:44:22;7.70;99.90
25024;DHT22;13033;50.936;5.334;2024-03-23T06:46:47;7.80;99.90
25024;DHT22;13033;50.936;5.334;2024-03-23T06:49:14;7.80;99.90
25024;DHT22;13033;50.936;5.334;2024-03-23T06:51:41;7.80;99.90
25024;DHT22;13033;50.936;5.334;2024-03-23T06:54:06;8.00;99.90
25024;DHT22;13033;50.936;5.334;2024-03-23T06:56:32;8.10;99.90
25024;DHT22;13033;50.936;5.334;2024-03-23T06:58:58;8.30;99.90
25024;DHT22;13033;50.936;5.334;2024-03-23T07:01:24;8.30;99.90
25024;DHT22;13033;50.936;5.334;2024-03-23T07:03:50;8.30;99.90
25024;DHT22;13033;50.936;5.334;2024-03-23T07:06:16;8.40;99.90
25024;DHT22;13033;50.936;5.334;2024-03-23T07:08:41;8.20;99.90
25024;DHT22;13033;50.936;5.334;2024-03-23T07:11:07;8.10;99.90
25024;DHT22;13033;50.936;5.334;2024-03-23T07:13:32;8.10;99.90
25024;DHT22;13033;50.936;5.334;2024-03-23T07:15:58;8.00;99.90
25024;DHT22;13033;50.936;5.334;2024-03-23T07:18:25;8.00;99.90
25024;DHT22;13033;50.936;5.334;2024-03-23T07:20:57;8.10;99.90
25024;DHT22;13033;50.936;5.334;2024-03-23T07:23:24;8.20;99.90
25024;DHT22;13033;50.936;5.334;2024-03-23T07:26:00;8.30;99.90
25024;DHT22;13033;50.936;5.334;2024-03-23T07:28:26;8.50;99.90
25024;DHT22;13033;50.936;5.334;2024-03-23T07:33:32;8.60;99.90
25024;DHT22;13033;50.936;5.334;2024-03-23T07:35:58;8.70;99.90
25024;DHT22;13033;50.936;5.334;2024-03-23T07:38:28;8.80;99.90
25024;DHT22;13033;50.936;5.334;2024-03-23T07:41:10;8.90;99.90
25024;DHT22;13033;50.936;5.334;2024-03-23T07:43:37;8.90;99.90
25024;DHT22;13033;50.936;5.334;2024-03-23T07:46:03;8.90;99.90
25024;DHT22;13033;50.936;5.334;2024-03-23T07:48:30;8.80;99.90
25024;DHT22;13033;50.936;5.334;2024-03-23T07:51:18;8.70;99.90
25024;DHT22;13033;50.936;5.334;2024-03-23T07:53:45;8.70;99.90
25024;DHT22;13033;50.936;5.334;2024-03-23T07:56:11;8.70;99.90
25024;DHT22;13033;50.936;5.334;2024-03-23T07:58:38;8.70;99.90
25024;DHT22;13033;50.936;5.334;2024-03-23T08:01:08;8.70;99.90
25024;DHT22;13033;50.936;5.334;2024-03-23T08:03:37;8.80;99.90
25024;DHT22;13033;50.936;5.334;2024-03-23T08:06:21;8.80;99.90
25024;DHT22;13033;50.936;5.334;2024-03-23T08:08:51;8.80;99.90
25024;DHT22;13033;50.936;5.334;2024-03-23T08:11:28;8.80;99.90
25024;DHT22;13033;50.936;5.334;2024-03-23T08:13:55;8.90;99.90
25024;DHT22;13033;50.936;5.334;2024-03-23T08:16:21;9.00;99.90
25024;DHT22;13033;50.936;5.334;2024-03-23T08:18:47;9.00;99.90
25024;DHT22;13033;50.936;5.334;2024-03-23T08:21:13;8.80;99.90
25024;DHT22;13033;50.936;5.334;2024-03-23T08:23:39;8.80;99.90
25024;DHT22;13033;50.936;5.334;2024-03-23T08:26:06;8.80;99.90
25024;DHT22;13033;50.936;5.334;2024-03-23T08:28:32;8.80;99.90
25024;DHT22;13033;50.936;5.334;2024-03-23T08:31:02;8.80;99.90
25024;DHT22;13033;50.936;5.334;2024-03-23T08:33:28;8.80;99.90
25024;DHT22;13033;50.936;5.334;2024-03-23T08:35:59;8.90;99.90
25024;DHT22;13033;50.936;5.334;2024-03-23T08:38:26;8.90;99.90
25024;DHT22;13033;50.936;5.334;2024-03-23T08:40:58;8.80;99.90
25024;DHT22;13033;50.936;5.334;2024-03-23T08:43:25;8.70;99.90
25024;DHT22;13033;50.936;5.334;2024-03-23T08:45:51;8.70;99.90
25024;DHT22;13033;50.936;5.334;2024-03-23T08:48:18;8.80;99.90
25024;DHT22;13033;50.936;5.334;2024-03-23T08:50:46;8.80;99.90
25024;DHT22;13033;50.936;5.334;2024-03-23T08:53:12;9.10;99.90
25024;DHT22;13033;50.936;5.334;2024-03-23T08:55:37;9.20;99.90
25024;DHT22;13033;50.936;5.334;2024-03-23T08:58:03;9.30;99.90
25024;DHT22;13033;50.936;5.334;2024-03-23T09:00:29;9.40;99.90
25024;DHT22;13033;50.936;5.334;2024-03-23T09:02:55;9.60;99.90
25024;DHT22;13033;50.936;5.334;2024-03-23T09:05:22;9.90;99.90
25024;DHT22;13033;50.936;5.334;2024-03-23T09:07:49;9.90;99.90
25024;DHT22;13033;50.936;5.334;2024-03-23T09:10:15;10.00;99.90
25024;DHT22;13033;50.936;5.334;2024-03-23T09:12:41;9.90;99.90
25024;DHT22;13033;50.936;5.334;2024-03-23T09:15:06;9.90;99.90
25024;DHT22;13033;50.936;5.334;2024-03-23T09:17:32;10.00;99.90
25024;DHT22;13033;50.936;5.334;2024-03-23T09:19:58;9.80;99.90
25024;DHT22;13033;50.936;5.334;2024-03-23T09:22:23;9.70;99.90
25024;DHT22;13033;50.936;5.334;2024-03-23T09:24:49;9.90;99.90
25024;DHT22;13033;50.936;5.334;2024-03-23T09:27:15;9.90;99.90
25024;DHT22;13033;50.936;5.334;2024-03-23T09:29:40;10.10;99.90
25024;DHT22;13033;50.936;5.334;2024-03-23T09:32:06;10.10;99.90
25024;DHT22;13033;50.936;5.334;2024-03-23T09:34:32;10.00;99.90
25024;DHT22;13033;50.936;5.334;2024-03-23T09:36:57;10.00;99.90
25024;DHT22;13033;50.936;5.334;2024-03-23T09:39:23;9.90;99.90
25024;DHT22;13033;50.936;5.334;2024-03-23T09:41:48;10.00;99.90
25024;DHT22;13033;50.936;5.334;2024-03-23T09:44:14;10.00;99.90
25024;DHT22;13033;50.936;5.334;2024-03-23T09:46:40;10.20;99.90
25024;DHT22;13033;50.936;5.334;2024-03-23T09:49:09;10.50;99.90
25024;DHT22;13033;50.936;5.334;2024-03-23T09:51:38;10.40;99.90
25024;DHT22;13033;50.936;5.334;2024-03-23T09:54:03;10.60;99.90
25024;DHT22;13033;50.936;5.334;2024-03-23T09:56:29;10.20;99.90
25024;DHT22;13033;50.936;5.334;2024-03-23T09:59:04;10.00;99.90
25024;DHT22;13033;50.936;5.334;2024-03-23T10:01:30;9.80;99.90
25024;DHT22;13033;50.936;5.334;2024-03-23T10:03:56;9.40;99.90
25024;DHT22;13033;50.936;5.334;2024-03-23T10:06:22;9.10;99.90
25024;DHT22;13033;50.936;5.334;2024-03-23T10:08:51;8.90;99.90
25024;DHT22;13033;50.936;5.334;2024-03-23T10:11:17;8.80;99.90
25024;DHT22;13033;50.936;5.334;2024-03-23T10:13:43;8.60;99.90
25024;DHT22;13033;50.936;5.334;2024-03-23T10:16:10;8.60;99.90
25024;DHT22;13033;50.936;5.334;2024-03-23T10:18:39;8.70;99.90
25024;DHT22;13033;50.936;5.334;2024-03-23T10:23:31;8.90;99.90
25024;DHT22;13033;50.936;5.334;2024-03-23T10:28:59;9.20;99.90
25024;DHT22;13033;50.936;5.334;2024-03-23T10:31:33;9.50;99.90
25024;DHT22;13033;50.936;5.334;2024-03-23T10:34:03;9.80;99.90
25024;DHT22;13033;50.936;5.334;2024-03-23T10:36:29;10.00;99.90
25024;DHT22;13033;50.936;5.334;2024-03-23T10:38:56;10.00;99.90
25024;DHT22;13033;50.936;5.334;2024-03-23T10:41:31;10.00;99.90
25024;DHT22;13033;50.936;5.334;2024-03-23T10:43:58;10.10;99.90
25024;DHT22;13033;50.936;5.334;2024-03-23T10:46:24;10.50;99.90
25024;DHT22;13033;50.936;5.334;2024-03-23T10:48:50;10.50;99.90
25024;DHT22;13033;50.936;5.334;2024-03-23T10:51:16;10.20;99.90
25024;DHT22;13033;50.936;5.334;2024-03-23T10:53:41;10.10;99.90
25024;DHT22;13033;50.936;5.334;2024-03-23T10:56:08;9.80;99.90
25024;DHT22;13033;50.936;5.334;2024-03-23T10:58:42;8.40;99.90
25024;DHT22;13033;50.936;5.334;2024-03-23T11:01:11;7.80;99.90
25024;DHT22;13033;50.936;5.334;2024-03-23T11:03:38;7.30;99.90
25024;DHT22;13033;50.936;5.334;2024-03-23T11:06:05;7.20;99.90
25024;DHT22;13033;50.936;5.334;2024-03-23T11:08:31;7.30;99.90
25024;DHT22;13033;50.936;5.334;2024-03-23T11:13:49;7.50;99.90
25024;DHT22;13033;50.936;5.334;2024-03-23T11:16:25;7.50;99.90
25024;DHT22;13033;50.936;5.334;2024-03-23T11:19:35;7.70;99.90
25024;DHT22;13033;50.936;5.334;2024-03-23T11:22:04;7.90;99.90
25024;DHT22;13033;50.936;5.334;2024-03-23T11:24:33;8.00;99.90
25024;DHT22;13033;50.936;5.334;2024-03-23T11:27:00;8.00;99.90
25024;DHT22;13033;50.936;5.334;2024-03-23T11:29:29;8.20;99.90
25024;DHT22;13033;50.936;5.334;2024-03-23T11:31:55;8.50;99.90
25024;DHT22;13033;50.936;5.334;2024-03-23T11:34:22;8.80;99.90
25024;DHT22;13033;50.936;5.334;2024-03-23T11:36:48;9.10;99.90
25024;DHT22;13033;50.936;5.334;2024-03-23T11:39:17;9.30;99.90
25024;DHT22;13033;50.936;5.334;2024-03-23T11:41:50;9.40;99.90
25024;DHT22;13033;50.936;5.334;2024-03-23T11:44:20;9.20;99.90
25024;DHT22;13033;50.936;5.334;2024-03-23T11:46:46;9.00;99.90
25024;DHT22;13033;50.936;5.334;2024-03-23T11:49:24;9.00;99.90
25024;DHT22;13033;50.936;5.334;2024-03-23T11:51:52;8.90;99.90
25024;DHT22;13033;50.936;5.334;2024-03-23T11:54:22;8.80;99.90
25024;DHT22;13033;50.936;5.334;2024-03-23T11:56:58;8.70;99.90
25024;DHT22;13033;50.936;5.334;2024-03-23T11:59:34;8.70;99.90
25024;DHT22;13033;50.936;5.334;2024-03-23T12:02:00;8.40;99.90
25024;DHT22;13033;50.936;5.334;2024-03-23T12:04:31;8.10;99.90
25024;DHT22;13033;50.936;5.334;2024-03-23T12:07:17;7.70;99.90
25024;DHT22;13033;50.936;5.334;2024-03-23T12:10:02;7.30;99.90
25024;DHT22;13033;50.936;5.334;2024-03-23T12:12:28;6.80;99.90
25024;DHT22;13033;50.936;5.334;2024-03-23T12:15:07;6.60;99.90
25024;DHT22;13033;50.936;5.334;2024-03-23T12:17:34;6.80;99.90
25024;DHT22;13033;50.936;5.334;2024-03-23T12:20:03;6.90;99.90
25024;DHT22;13033;50.936;5.334;2024-03-23T12:22:28;7.00;99.90
25024;DHT22;13033;50.936;5.334;2024-03-23T12:24:57;7.20;99.90
25024;DHT22;13033;50.936;5.334;2024-03-23T12:27:23;7.50;99.90
25024;DHT22;13033;50.936;5.334;2024-03-23T12:29:49;7.70;99.90
25024;DHT22;13033;50.936;5.334;2024-03-23T12:32:15;8.00;99.90
25024;DHT22;13033;50.936;5.334;2024-03-23T12:34:41;8.30;99.90
25024;DHT22;13033;50.936;5.334;2024-03-23T12:37:07;8.60;99.90
25024;DHT22;13033;50.936;5.334;2024-03-23T12:39:33;8.80;99.90
25024;DHT22;13033;50.936;5.334;2024-03-23T12:42:00;8.90;99.90
25024;DHT22;13033;50.936;5.334;2024-03-23T12:44:26;9.00;99.90
25024;DHT22;13033;50.936;5.334;2024-03-23T12:46:51;9.00;99.90
25024;DHT22;13033;50.936;5.334;2024-03-23T12:49:17;9.00;99.90
25024;DHT22;13033;50.936;5.334;2024-03-23T12:51:56;9.10;99.90
25024;DHT22;13033;50.936;5.334;2024-03-23T12:54:22;9.30;99.90
25024;DHT22;13033;50.936;5.334;2024-03-23T12:56:48;9.50;99.90
25024;DHT22;13033;50.936;5.334;2024-03-23T12:59:14;9.50;99.90
25024;DHT22;13033;50.936;5.334;2024-03-23T13:01:40;9.30;99.90
25024;DHT22;13033;50.936;5.334;2024-03-23T13:04:06;9.00;99.90
25024;DHT22;13033;50.936;5.334;2024-03-23T13:06:32;8.40;99.90
25024;DHT22;13033;50.936;5.334;2024-03-23T13:09:03;7.90;99.90
25024;DHT22;13033;50.936;5.334;2024-03-23T13:11:29;7.70;99.90
25024;DHT22;13033;50.936;5.334;2024-03-23T13:13:55;7.80;99.90
25024;DHT22;13033;50.936;5.334;2024-03-23T13:16:20;7.90;99.90
25024;DHT22;13033;50.936;5.334;2024-03-23T13:18:46;8.10;99.90
25024;DHT22;13033;50.936;5.334;2024-03-23T13:21:12;8.20;99.90
25024;DHT22;13033;50.936;5.334;2024-03-23T13:23:37;8.20;99.90
25024;DHT22;13033;50.936;5.334;2024-03-23T13:26:06;8.20;99.90
25024;DHT22;13033;50.936;5.334;2024-03-23T13:28:33;8.10;99.90
25024;DHT22;13033;50.936;5.334;2024-03-23T13:30:58;8.00;99.90
25024;DHT22;13033;50.936;5.334;2024-03-23T13:33:29;7.80;99.90
25024;DHT22;13033;50.936;5.334;2024-03-23T13:35:55;7.70;99.90
25024;DHT22;13033;50.936;5.334;2024-03-23T13:38:22;7.80;99.90
25024;DHT22;13033;50.936;5.334;2024-03-23T13:40:57;8.00;99.90
25024;DHT22;13033;50.936;5.334;2024-03-23T13:43:24;8.20;99.90
25024;DHT22;13033;50.936;5.334;2024-03-23T13:45:55;8.40;99.90
25024;DHT22;13033;50.936;5.334;2024-03-23T13:48:22;8.70;99.90
25024;DHT22;13033;50.936;5.334;2024-03-23T13:51:00;9.10;99.90
25024;DHT22;13033;50.936;5.334;2024-03-23T13:53:25;9.40;99.90
25024;DHT22;13033;50.936;5.334;2024-03-23T13:55:51;9.70;99.90
25024;DHT22;13033;50.936;5.334;2024-03-23T13:58:17;9.80;1.00
25024;DHT22;13033;50.936;5.334;2024-03-23T14:00:42;9.80;99.90
25024;DHT22;13033;50.936;5.334;2024-03-23T14:03:09;9.90;99.90
25024;DHT22;13033;50.936;5.334;2024-03-23T14:05:35;10.00;99.90
25024;DHT22;13033;50.936;5.334;2024-03-23T14:08:01;9.90;99.90
25024;DHT22;13033;50.936;5.334;2024-03-23T14:10:27;9.90;99.90
25024;DHT22;13033;50.936;5.334;2024-03-23T14:12:53;9.90;99.90
25024;DHT22;13033;50.936;5.334;2024-03-23T14:15:19;9.80;99.90
25024;DHT22;13033;50.936;5.334;2024-03-23T14:17:44;9.40;99.90
25024;DHT22;13033;50.936;5.334;2024-03-23T14:20:11;8.90;1.00
25024;DHT22;13033;50.936;5.334;2024-03-23T14:22:37;8.50;35.60
25024;DHT22;13033;50.936;5.334;2024-03-23T14:25:03;8.20;1.00
25024;DHT22;13033;50.936;5.334;2024-03-23T14:27:29;8.00;1.00
25024;DHT22;13033;50.936;5.334;2024-03-23T14:29:55;8.10;1.00
25024;DHT22;13033;50.936;5.334;2024-03-23T14:32:21;8.30;99.90
25024;DHT22;13033;50.936;5.334;2024-03-23T14:34:48;8.50;1.00
25024;DHT22;13033;50.936;5.334;2024-03-23T14:37:13;8.90;1.00
25024;DHT22;13033;50.936;5.334;2024-03-23T14:39:41;9.20;99.90
25024;DHT22;13033;50.936;5.334;2024-03-23T14:42:07;9.50;99.90
25024;DHT22;13033;50.936;5.334;2024-03-23T14:44:35;9.90;99.90
25024;DHT22;13033;50.936;5.334;2024-03-23T14:47:01;10.20;99.90
25024;DHT22;13033;50.936;5.334;2024-03-23T14:49:27;10.70;1.00
25024;DHT22;13033;50.936;5.334;2024-03-23T14:51:52;11.00;99.90
25024;DHT22;13033;50.936;5.334;2024-03-23T14:54:18;11.20;99.90
25024;DHT22;13033;50.936;5.334;2024-03-23T14:56:43;11.20;1.00
25024;DHT22;13033;50.936;5.334;2024-03-23T14:59:09;11.30;1.00
25024;DHT22;13033;50.936;5.334;2024-03-23T15:01:35;11.30;1.00
25024;DHT22;13033;50.936;5.334;2024-03-23T15:04:00;11.30;1.00
25024;DHT22;13033;50.936;5.334;2024-03-23T15:06:26;11.60;1.00
25024;DHT22;13033;50.936;5.334;2024-03-23T15:08:52;11.80;99.90
25024;DHT22;13033;50.936;5.334;2024-03-23T15:11:18;11.70;99.90
25024;DHT22;13033;50.936;5.334;2024-03-23T15:13:45;11.80;14.80
25024;DHT22;13033;50.936;5.334;2024-03-23T15:16:10;11.40;99.90
25024;DHT22;13033;50.936;5.334;2024-03-23T15:18:36;11.60;99.90
25024;DHT22;13033;50.936;5.334;2024-03-23T15:21:03;13.00;99.90
25024;DHT22;13033;50.936;5.334;2024-03-23T15:23:33;14.30;99.90
25024;DHT22;13033;50.936;5.334;2024-03-23T15:26:01;14.70;1.00
25024;DHT22;13033;50.936;5.334;2024-03-23T15:28:28;15.10;99.90
25024;DHT22;13033;50.936;5.334;2024-03-23T15:31:14;14.80;1.00
25024;DHT22;13033;50.936;5.334;2024-03-23T15:33:39;14.50;1.00
25024;DHT22;13033;50.936;5.334;2024-03-23T15:36:05;14.20;1.00
25024;DHT22;13033;50.936;5.334;2024-03-23T15:38:32;13.90;1.00
25024;DHT22;13033;50.936;5.334;2024-03-23T15:40:58;13.80;1.00
25024;DHT22;13033;50.936;5.334;2024-03-23T15:43:24;14.00;1.00
25024;DHT22;13033;50.936;5.334;2024-03-23T15:45:56;14.20;1.00
25024;DHT22;13033;50.936;5.334;2024-03-23T15:48:24;13.90;99.90
25024;DHT22;13033;50.936;5.334;2024-03-23T15:50:53;12.80;99.90
25024;DHT22;13033;50.936;5.334;2024-03-23T15:53:22;12.30;1.00
25024;DHT22;13033;50.936;5.334;2024-03-23T15:55:58;11.70;1.00
25024;DHT22;13033;50.936;5.334;2024-03-23T15:58:25;11.30;1.00
25024;DHT22;13033;50.936;5.334;2024-03-23T16:00:58;11.70;1.00
25024;DHT22;13033;50.936;5.334;2024-03-23T16:03:25;12.00;1.00
25024;DHT22;13033;50.936;5.334;2024-03-23T16:05:54;11.50;18.90
25024;DHT22;13033;50.936;5.334;2024-03-23T16:08:21;11.00;28.90
25024;DHT22;13033;50.936;5.334;2024-03-23T16:10:47;11.00;99.90
25024;DHT22;13033;50.936;5.334;2024-03-23T16:13:13;10.80;99.90
25024;DHT22;13033;50.936;5.334;2024-03-23T16:15:38;10.70;99.90
25024;DHT22;13033;50.936;5.334;2024-03-23T16:18:04;10.60;99.90
25024;DHT22;13033;50.936;5.334;2024-03-23T16:20:30;10.30;99.90
25024;DHT22;13033;50.936;5.334;2024-03-23T16:22:58;10.20;99.90
25024;DHT22;13033;50.936;5.334;2024-03-23T16:25:24;10.30;99.90
25024;DHT22;13033;50.936;5.334;2024-03-23T16:27:50;10.20;1.00
25024;DHT22;13033;50.936;5.334;2024-03-23T16:30:15;10.10;1.00
25024;DHT22;13033;50.936;5.334;2024-03-23T16:32:41;10.00;97.80
25024;DHT22;13033;50.936;5.334;2024-03-23T16:35:07;9.90;99.90
25024;DHT22;13033;50.936;5.334;2024-03-23T16:37:35;9.40;99.90
25024;DHT22;13033;50.936;5.334;2024-03-23T16:40:01;9.10;1.00
25024;DHT22;13033;50.936;5.334;2024-03-23T16:42:27;8.90;1.00
25024;DHT22;13033;50.936;5.334;2024-03-23T16:44:53;8.90;99.90
25024;DHT22;13033;50.936;5.334;2024-03-23T16:47:19;9.30;99.90